createdAt,value
2022-09-06T00:01:13.529Z,86649.78
2022-09-06T00:03:41.450Z,86635.25
2022-09-06T00:06:13.676Z,86641.41
2022-09-06T00:08:41.953Z,86645.56
2022-09-06T00:11:10.145Z,86637.28
2022-09-06T00:13:38.412Z,86636.63
2022-09-06T00:16:12.465Z,86651.19
2022-09-06T00:18:41.019Z,86647.13
2022-09-06T00:21:24.747Z,86641.63
2022-09-06T00:23:54.407Z,86642.31
2022-09-06T00:26:23.407Z,86634.72
2022-09-06T00:28:51.956Z,86641.72
2022-09-06T00:31:22.673Z,86616.91
2022-09-06T00:33:52.081Z,86621.75
2022-09-06T00:36:20.704Z,86625.84
2022-09-06T00:38:49.184Z,86630.00
2022-09-06T00:41:17.522Z,86605.91
2022-09-06T00:43:45.664Z,86626.59
2022-09-06T00:46:18.835Z,86592.00
2022-09-06T00:48:51.127Z,86619.63
2022-09-06T00:51:22.381Z,86614.06
2022-09-06T00:53:51.518Z,86623.09
2022-09-06T00:56:19.692Z,86621.75
2022-09-06T00:58:49.575Z,86596.28
2022-09-06T01:01:17.548Z,86554.97
2022-09-06T01:03:45.694Z,86595.00
2022-09-06T01:06:26.560Z,86612.88
2022-09-06T01:09:16.299Z,86612.88
2022-09-06T01:11:55.961Z,86597.75
2022-09-06T01:14:29.463Z,86617.19
2022-09-06T01:17:29.750Z,86610.25
2022-09-06T01:20:15.940Z,86615.78
2022-09-06T01:23:25.388Z,86618.56
2022-09-06T01:26:24.193Z,86596.53
2022-09-06T01:28:54.653Z,86631.13
2022-09-06T01:31:43.446Z,86602.84
2022-09-06T01:34:29.533Z,86617.22
2022-09-06T01:37:10.838Z,86615.84
2022-09-06T01:39:40.675Z,86592.41
2022-09-06T01:42:18.135Z,86538.56
2022-09-06T01:44:51.844Z,86550.28
2022-09-06T01:47:33.770Z,86599.84
2022-09-06T01:50:04.270Z,86599.88
2022-09-06T01:53:04.486Z,86596.41
2022-09-06T01:55:55.272Z,86603.38
2022-09-06T01:58:26.810Z,86595.66
2022-09-06T02:00:58.124Z,86564.72
2022-09-06T02:03:32.752Z,86595.78
2022-09-06T02:06:08.054Z,86582.75
2022-09-06T02:08:50.374Z,86602.06
2022-09-06T02:11:18.281Z,86577.94
2022-09-06T02:14:11.358Z,86586.84
2022-09-06T02:16:43.254Z,86567.47
2022-09-06T02:19:18.015Z,86574.44
2022-09-06T02:21:48.170Z,86526.84
2022-09-06T02:24:21.672Z,86518.06
2022-09-06T02:26:50.253Z,86550.53
2022-09-06T02:29:18.827Z,86580.19
2022-09-06T02:31:53.613Z,86564.97
2022-09-06T02:34:22.755Z,86553.94
2022-09-06T02:36:51.576Z,86531.97
2022-09-06T02:39:20.227Z,86569.13
2022-09-06T02:41:49.663Z,86566.41
2022-09-06T02:44:19.111Z,86575.44
2022-09-06T02:46:46.211Z,86581.66
2022-09-06T02:49:14.033Z,86592.66
2022-09-06T02:51:42.011Z,86568.56
2022-09-06T02:54:10.188Z,86589.88
2022-09-06T02:56:38.914Z,86589.91
2022-09-06T02:59:06.508Z,86558.25
2022-09-06T03:01:34.767Z,86582.97
2022-09-06T03:04:02.987Z,86596.88
2022-09-06T03:06:31.521Z,86557.59
2022-09-06T03:09:00.353Z,86591.41
2022-09-06T03:11:28.937Z,86555.56
2022-09-06T03:13:56.613Z,86599.69
2022-09-06T03:16:24.512Z,86598.28
2022-09-06T03:18:52.017Z,86600.34
2022-09-06T03:21:19.736Z,86574.84
2022-09-06T03:23:47.524Z,86551.34
2022-09-06T03:26:15.006Z,86581.06
2022-09-06T03:28:43.297Z,86568.72
2022-09-06T03:31:11.073Z,86577.66
2022-09-06T03:33:38.686Z,86581.09
2022-09-06T03:36:06.761Z,86541.84
2022-09-06T03:38:34.627Z,86594.16
2022-09-06T03:41:02.502Z,86594.91
2022-09-06T03:43:31.750Z,86601.25
2022-09-06T03:45:59.789Z,86598.50
2022-09-06T03:48:29.557Z,86599.97
2022-09-06T03:50:59.758Z,86597.91
2022-09-06T03:53:29.597Z,86602.75
2022-09-06T03:55:58.904Z,86600.69
2022-09-06T03:58:30.979Z,86582.06
2022-09-06T04:01:04.294Z,86600.06
2022-09-06T04:03:32.819Z,86591.88
2022-09-06T04:06:01.027Z,86574.53
2022-09-06T04:08:30.272Z,86604.25
2022-09-06T04:11:02.114Z,86569.69
2022-09-06T04:13:31.700Z,86586.28
2022-09-06T04:16:01.633Z,86573.84
2022-09-06T04:18:30.425Z,86593.91
2022-09-06T04:20:59.505Z,86555.91
2022-09-06T04:23:29.478Z,86600.88
2022-09-06T04:25:59.234Z,86601.56
2022-09-06T04:28:28.190Z,86598.78
2022-09-06T04:31:03.953Z,86582.25
2022-09-06T04:33:35.701Z,86603.66
2022-09-06T04:36:09.300Z,86607.13
2022-09-06T04:38:42.293Z,86578.78
2022-09-06T04:41:14.962Z,86588.44
2022-09-06T04:43:44.156Z,86569.78
2022-09-06T04:46:24.178Z,86578.81
2022-09-06T04:48:52.960Z,86572.56
2022-09-06T04:51:22.090Z,86594.63
2022-09-06T04:53:50.094Z,86583.56
2022-09-06T04:56:23.123Z,86600.19
2022-09-06T04:58:52.133Z,86589.13
2022-09-06T05:01:20.606Z,86595.25
2022-09-06T05:03:49.451Z,86560.03
2022-09-06T05:06:22.981Z,86598.69
2022-09-06T05:08:51.583Z,86598.59
2022-09-06T05:11:19.979Z,86548.13
2022-09-06T05:13:48.266Z,86565.38
2022-09-06T05:16:16.128Z,86573.53
2022-09-06T05:18:44.826Z,86591.38
2022-09-06T05:21:12.341Z,86583.63
2022-09-06T05:23:40.312Z,86582.25
2022-09-06T05:26:08.533Z,86534.59
2022-09-06T05:28:37.201Z,86582.78
2022-09-06T05:31:12.575Z,86590.91
2022-09-06T05:33:40.952Z,86586.59
2022-09-06T05:36:08.678Z,86593.53
2022-09-06T05:38:36.452Z,86595.50
2022-09-06T05:41:04.070Z,86594.09
2022-09-06T05:43:31.745Z,86589.78
2022-09-06T05:45:59.565Z,86589.59
2022-09-06T05:48:27.422Z,86587.44
2022-09-06T05:51:01.841Z,86597.09
2022-09-06T05:53:37.931Z,86588.66
2022-09-06T05:56:06.731Z,86589.91
2022-09-06T05:58:34.967Z,86535.19
2022-09-06T06:01:19.576Z,86572.31
2022-09-06T06:03:52.816Z,86558.38
2022-09-06T06:06:22.477Z,86583.94
2022-09-06T06:08:51.334Z,86538.41
2022-09-06T06:11:20.526Z,86547.78
2022-09-06T06:13:49.573Z,86554.59
2022-09-06T06:16:19.816Z,86559.84
2022-09-06T06:18:51.967Z,86541.78
2022-09-06T06:21:24.855Z,86586.94
2022-09-06T06:23:56.310Z,86586.94
2022-09-06T06:26:25.689Z,86578.78
2022-09-06T06:28:53.981Z,86582.84
2022-09-06T06:31:23.046Z,86589.09
2022-09-06T06:33:51.554Z,86579.91
2022-09-06T06:36:22.421Z,86567.22
2022-09-06T06:38:53.972Z,86576.91
2022-09-06T06:41:25.178Z,86597.63
2022-09-06T06:43:54.397Z,86586.31
2022-09-06T06:46:24.956Z,86543.56
2022-09-06T06:48:55.049Z,86561.13
2022-09-06T06:51:34.007Z,86558.34
2022-09-06T06:54:01.621Z,86587.69
2022-09-06T06:56:32.127Z,86551.84
2022-09-06T06:59:03.386Z,86589.53
2022-09-06T07:01:33.294Z,86588.56
2022-09-06T07:04:01.701Z,86565.72
2022-09-06T07:09:19.717Z,86548.81
2022-09-06T07:11:49.101Z,86558.28
2022-09-06T07:14:18.076Z,86587.91
2022-09-06T07:16:46.131Z,86564.47
2022-09-06T07:22:04.599Z,86574.78
2022-09-06T07:24:34.157Z,86587.47
2022-09-06T07:29:49.563Z,86581.56
2022-09-06T07:32:16.996Z,86558.50
2022-09-06T07:34:44.814Z,86598.25
2022-09-06T07:37:12.060Z,86597.44
2022-09-06T07:39:40.176Z,86597.97
2022-09-06T07:42:08.255Z,86575.66
2022-09-06T07:44:36.094Z,86571.41
2022-09-06T07:55:30.383Z,86595.88
2022-09-06T07:57:57.580Z,86600.47
2022-09-06T08:00:26.080Z,86592.13
2022-09-06T08:02:53.712Z,86600.81
2022-09-06T08:10:57.828Z,86582.50
2022-09-06T08:13:25.204Z,86546.69
2022-09-06T08:16:04.377Z,86566.47
2022-09-06T08:18:31.908Z,86532.84
2022-09-06T08:21:13.285Z,86588.78
2022-09-06T08:23:45.024Z,86578.41
2022-09-06T08:26:19.457Z,86585.88
2022-09-06T08:28:47.119Z,86589.91
2022-09-06T08:31:18.109Z,86590.44
2022-09-06T08:33:46.910Z,86550.94
2022-09-06T08:36:14.873Z,86552.91
2022-09-06T08:38:42.950Z,86547.06
2022-09-06T08:41:31.548Z,86574.78
2022-09-06T08:47:07.942Z,86591.13
2022-09-06T08:49:42.560Z,86558.88
2022-09-06T08:52:54.415Z,86581.31
2022-09-06T08:55:35.977Z,86578.69
2022-09-06T08:58:25.258Z,86572.78
2022-09-06T09:00:59.218Z,86560.81
2022-09-06T09:03:38.245Z,86550.09
2022-09-06T09:06:09.510Z,86574.56
2022-09-06T09:08:49.216Z,86541.94
2022-09-06T09:11:22.739Z,86561.38
2022-09-06T09:14:25.459Z,86568.50
2022-09-06T09:16:55.395Z,86568.34
2022-09-06T09:19:23.298Z,86561.75
2022-09-06T09:21:50.727Z,86561.06
2022-09-06T09:24:18.076Z,86568.28
2022-09-06T09:26:59.862Z,86558.97
2022-09-06T09:29:30.306Z,86546.47
2022-09-06T09:32:00.011Z,86556.44
2022-09-06T09:34:40.815Z,86557.38
2022-09-06T09:40:26.873Z,86564.41
2022-09-06T09:42:58.247Z,86481.94
2022-09-06T09:45:30.096Z,86554.44
2022-09-06T09:47:58.369Z,86541.69
2022-09-06T09:50:31.873Z,86557.13
2022-09-06T09:53:11.915Z,86528.88
2022-09-06T09:55:42.110Z,86531.91
2022-09-06T09:58:31.192Z,86561.06
2022-09-06T10:01:22.402Z,86537.25
2022-09-06T10:09:42.171Z,86549.44
2022-09-06T10:12:18.780Z,86516.34
2022-09-06T10:14:50.038Z,86539.38
2022-09-06T10:17:48.890Z,86541.56
2022-09-06T10:20:16.993Z,86545.69
2022-09-06T10:23:02.843Z,86538.31
2022-09-06T10:25:49.202Z,86535.16
2022-09-06T10:28:44.436Z,86535.66
2022-09-06T10:31:43.507Z,86528.97
2022-09-06T10:34:42.827Z,86528.03
2022-09-06T10:37:36.584Z,86526.47
2022-09-06T10:40:11.024Z,86505.13
2022-09-06T10:42:54.030Z,86521.25
2022-09-06T10:45:22.263Z,86520.84
2022-09-06T10:48:23.139Z,86529.88
2022-09-06T10:50:55.958Z,86529.47
2022-09-06T10:53:39.447Z,86522.25
2022-09-06T10:56:30.079Z,86514.91
2022-09-06T11:01:56.560Z,86513.34
2022-09-06T11:10:40.377Z,86508.47
2022-09-06T11:13:24.065Z,86477.28
2022-09-06T11:16:17.425Z,86507.22
2022-09-06T11:18:55.710Z,86514.06
2022-09-06T11:21:52.865Z,86511.06
2022-09-06T11:24:51.180Z,86479.44
2022-09-06T11:27:30.712Z,86507.09
2022-09-06T11:30:02.110Z,86482.41
2022-09-06T11:32:39.616Z,86504.59
2022-09-06T11:35:40.782Z,86489.78
2022-09-06T11:38:17.252Z,86512.72
2022-09-06T11:40:53.917Z,86482.19
2022-09-06T11:43:42.974Z,86514.00
2022-09-06T11:46:11.182Z,86515.34
2022-09-06T11:49:03.935Z,86513.19
2022-09-06T11:51:40.464Z,86511.16
2022-09-06T11:54:23.382Z,86516.38
2022-09-06T11:57:03.418Z,86517.59
2022-09-06T11:59:33.739Z,86515.03
2022-09-06T12:02:03.311Z,86473.31
2022-09-06T12:05:03.728Z,86504.69
2022-09-06T12:07:33.296Z,86501.75
2022-09-06T12:10:31.957Z,86499.19
2022-09-06T12:13:00.088Z,86483.41
2022-09-06T12:15:33.483Z,86510.31
2022-09-06T12:18:01.667Z,86516.13
2022-09-06T12:20:51.391Z,86502.44
2022-09-06T12:23:37.383Z,86505.69
2022-09-06T12:26:43.253Z,86504.31
2022-09-06T12:29:11.808Z,86487.91
2022-09-06T12:31:43.183Z,86477.81
2022-09-06T12:34:20.542Z,86486.66
2022-09-06T12:37:02.719Z,86497.50
2022-09-06T12:39:31.134Z,86486.53
2022-09-06T12:42:11.015Z,86487.59
2022-09-06T12:44:43.594Z,86482.81
2022-09-06T12:47:17.657Z,86451.72
2022-09-06T12:49:45.793Z,86465.22
2022-09-06T12:52:15.999Z,86465.53
2022-09-06T12:54:49.139Z,86489.97
2022-09-06T12:57:25.145Z,86481.94
2022-09-06T12:59:55.990Z,86451.03
2022-09-06T13:03:04.298Z,86441.72
2022-09-06T13:05:32.687Z,86462.31
2022-09-06T13:08:02.480Z,86459.63
2022-09-06T13:10:30.854Z,86433.78
2022-09-06T13:12:59.703Z,86472.19
2022-09-06T13:15:31.554Z,86451.63
2022-09-06T13:18:27.460Z,86484.00
2022-09-06T13:21:07.367Z,86468.69
2022-09-06T13:24:04.244Z,86480.38
2022-09-06T13:26:39.469Z,86473.03
2022-09-06T13:29:30.570Z,86478.50
2022-09-06T13:32:02.666Z,86457.53
2022-09-06T13:34:34.602Z,86457.09
2022-09-06T13:37:06.220Z,86468.28
2022-09-06T13:39:44.139Z,86415.81
2022-09-06T13:42:28.684Z,86449.56
2022-09-06T13:45:01.799Z,86459.78
2022-09-06T13:47:30.754Z,86439.03
2022-09-06T13:49:57.977Z,86431.78
2022-09-06T13:52:26.460Z,86468.25
2022-09-06T13:54:53.828Z,86444.53
2022-09-06T13:57:24.347Z,86474.06
2022-09-06T13:59:52.355Z,86468.34
2022-09-06T14:02:21.074Z,86463.81
2022-09-06T14:04:48.882Z,86459.13
2022-09-06T14:07:16.206Z,86426.09
2022-09-06T14:09:44.884Z,86464.84
2022-09-06T14:12:12.543Z,86464.00
2022-09-06T14:14:41.360Z,86415.13
2022-09-06T14:17:08.867Z,86433.66
2022-09-06T14:19:37.584Z,86436.84
2022-09-06T14:22:06.991Z,86432.47
2022-09-06T14:24:37.714Z,86414.19
2022-09-06T14:27:07.346Z,86423.00
2022-09-06T14:29:36.203Z,86424.69
2022-09-06T14:32:04.037Z,86448.03
2022-09-06T14:34:32.445Z,86419.59
2022-09-06T14:36:59.761Z,86425.91
2022-09-06T14:39:28.569Z,86420.34
2022-09-06T14:41:56.427Z,86444.16
2022-09-06T14:44:25.441Z,86408.84
2022-09-06T14:46:54.656Z,86415.78
2022-09-06T14:49:24.049Z,86413.50
2022-09-06T14:51:53.976Z,86440.00
2022-09-06T14:54:27.293Z,86419.03
2022-09-06T14:56:57.337Z,86403.50
2022-09-06T14:59:25.054Z,86421.22
2022-09-06T15:01:53.161Z,86409.13
2022-09-06T15:04:22.090Z,86412.28
2022-09-06T15:06:49.862Z,86393.88
2022-09-06T15:09:18.207Z,86421.13
2022-09-06T15:11:49.627Z,86434.97
2022-09-06T15:14:19.085Z,86369.75
2022-09-06T15:16:52.013Z,86412.44
2022-09-06T15:19:23.452Z,86427.53
2022-09-06T15:21:51.152Z,86422.50
2022-09-06T15:24:20.403Z,86417.72
2022-09-06T15:26:48.272Z,86437.09
2022-09-06T15:29:17.316Z,86431.41
2022-09-06T15:31:50.355Z,86430.88
2022-09-06T15:34:22.539Z,86436.59
2022-09-06T15:36:51.554Z,86413.63
2022-09-06T15:39:19.522Z,86391.72
2022-09-06T15:41:47.279Z,86434.94
2022-09-06T15:44:17.115Z,86439.41
2022-09-06T15:46:47.371Z,86433.25
2022-09-06T15:49:19.069Z,86425.84
2022-09-06T15:51:48.060Z,86440.81
2022-09-06T15:54:18.219Z,86444.59
2022-09-06T15:56:46.875Z,86438.47
2022-09-06T15:59:14.243Z,86422.22
2022-09-06T16:01:42.260Z,86416.59
2022-09-06T16:04:10.531Z,86437.66
2022-09-06T16:06:42.971Z,86415.50
2022-09-06T16:09:17.731Z,86444.91
2022-09-06T16:11:46.337Z,86421.56
2022-09-06T16:14:15.962Z,86446.56
2022-09-06T16:16:44.880Z,86452.28
2022-09-06T16:19:22.997Z,86437.53
2022-09-06T16:21:51.743Z,86423.53
2022-09-06T16:24:19.467Z,86432.31
2022-09-06T16:26:48.175Z,86428.34
2022-09-06T16:29:18.265Z,86409.09
2022-09-06T16:31:47.853Z,86427.19
2022-09-06T16:34:15.412Z,86414.97
2022-09-06T16:36:44.852Z,86438.53
2022-09-06T16:39:13.081Z,86443.44
2022-09-06T16:41:44.448Z,86424.47
2022-09-06T16:44:16.990Z,86423.91
2022-09-06T16:46:48.239Z,86422.47
2022-09-06T16:49:17.454Z,86412.44
2022-09-06T16:51:46.414Z,86423.66
2022-09-06T16:54:16.135Z,86430.03
2022-09-06T16:56:44.447Z,86446.81
2022-09-06T16:59:15.768Z,86378.81
2022-09-06T17:01:45.405Z,86463.09
2022-09-06T17:04:14.540Z,86449.66
2022-09-06T17:06:44.785Z,86471.69
2022-09-06T17:09:19.820Z,86427.34
2022-09-06T17:11:50.410Z,86417.97
2022-09-06T17:14:22.010Z,86440.69
2022-09-06T17:17:04.709Z,86482.81
2022-09-06T17:19:41.630Z,86363.03
2022-09-06T17:22:10.576Z,86431.50
2022-09-06T17:24:39.398Z,86440.88
2022-09-06T17:27:07.749Z,86474.38
2022-09-06T17:29:35.264Z,86458.34
2022-09-06T17:32:05.239Z,86457.72
2022-09-06T17:34:32.822Z,86457.41
2022-09-06T17:37:00.532Z,86470.63
2022-09-06T17:39:28.072Z,86431.75
2022-09-06T17:41:55.446Z,86456.97
2022-09-06T17:44:26.268Z,86416.13
2022-09-06T17:49:43.627Z,86465.56
2022-09-06T17:52:11.581Z,86457.53
2022-09-06T17:54:40.294Z,86499.59
2022-09-06T17:57:07.654Z,86490.75
2022-09-06T17:59:36.448Z,86510.19
2022-09-06T18:02:05.376Z,86501.97
2022-09-06T18:04:34.134Z,86438.53
2022-09-06T18:07:02.136Z,86506.72
2022-09-06T18:09:30.689Z,86487.13
2022-09-06T18:11:58.641Z,86474.22
2022-09-06T18:14:29.227Z,86522.81
2022-09-06T18:16:57.160Z,86516.28
2022-09-06T18:19:26.252Z,86521.81
2022-09-06T18:21:55.828Z,86504.63
2022-09-06T18:24:24.181Z,86504.63
2022-09-06T18:26:52.832Z,86479.75
2022-09-06T18:29:21.125Z,86509.19
2022-09-06T18:31:49.891Z,86497.69
2022-09-06T18:34:19.788Z,86510.22
2022-09-06T18:36:48.463Z,86447.34
2022-09-06T18:39:16.445Z,86506.47
2022-09-06T18:42:04.316Z,86494.63
2022-09-06T18:44:33.751Z,86489.19
2022-09-06T18:47:03.175Z,86519.97
2022-09-06T18:49:31.501Z,86534.03
2022-09-06T18:51:59.383Z,86482.44
2022-09-06T18:54:27.935Z,86531.91
2022-09-06T18:56:55.777Z,86506.63
2022-09-06T18:59:24.536Z,86530.03
2022-09-06T19:01:52.263Z,86435.88
2022-09-06T19:04:20.830Z,86517.78
2022-09-06T19:06:48.516Z,86528.03
2022-09-06T19:09:17.958Z,86530.78
2022-09-06T19:12:08.191Z,86530.97
2022-09-06T19:14:38.769Z,86533.56
2022-09-06T19:17:07.359Z,86526.03
2022-09-06T19:19:35.854Z,86517.03
2022-09-06T19:22:04.430Z,86512.91
2022-09-06T19:24:33.424Z,86506.78
2022-09-06T19:27:06.452Z,86497.03
2022-09-06T19:29:35.322Z,86491.47
2022-09-06T19:32:05.573Z,86520.44
2022-09-06T19:34:34.438Z,86522.44
2022-09-06T19:37:03.308Z,86517.78
2022-09-06T19:39:56.477Z,86521.16
2022-09-06T19:42:24.574Z,86510.66
2022-09-06T19:44:52.795Z,86492.38
2022-09-06T19:47:21.752Z,86516.41
2022-09-06T19:49:49.473Z,86499.25
2022-09-06T19:52:17.930Z,86453.78
2022-09-06T19:54:45.868Z,86523.19
2022-09-06T19:57:13.540Z,86489.97
2022-09-06T19:59:41.615Z,86496.38
2022-09-06T20:02:10.115Z,86519.72
2022-09-06T20:04:38.383Z,86487.47
2022-09-06T20:07:09.397Z,86510.19
2022-09-06T20:09:38.582Z,86489.63
2022-09-06T20:12:08.409Z,86503.06
2022-09-06T20:14:37.592Z,86458.56
2022-09-06T20:17:32.343Z,86475.59
2022-09-06T20:19:57.899Z,86507.88
2022-09-06T20:22:27.116Z,86499.03
2022-09-06T20:24:56.264Z,86491.59
2022-09-06T20:27:24.991Z,86488.16
2022-09-06T20:29:53.731Z,86517.03
2022-09-06T20:32:21.805Z,86499.94
2022-09-06T20:34:50.333Z,86502.28
2022-09-06T20:37:18.880Z,86507.69
2022-09-06T20:39:47.767Z,86486.13
2022-09-06T20:42:16.441Z,86507.69
2022-09-06T20:44:44.960Z,86494.03
2022-09-06T20:47:13.341Z,86493.25
2022-09-06T20:49:41.869Z,86457.72
2022-09-06T20:52:10.108Z,86502.56
2022-09-06T20:54:38.338Z,86492.19
2022-09-06T20:57:06.566Z,86472.31
2022-09-06T20:59:34.743Z,86496.19
2022-09-06T21:02:03.887Z,86484.84
2022-09-06T21:04:31.946Z,86504.22
2022-09-06T21:07:00.488Z,86480.28
2022-09-06T21:09:28.772Z,86469.84
2022-09-06T21:11:57.908Z,86504.44
2022-09-06T21:14:26.269Z,86498.84
2022-09-06T21:16:57.401Z,86485.84
2022-09-06T21:19:26.121Z,86479.00
2022-09-06T21:21:54.434Z,86472.28
2022-09-06T21:24:22.715Z,86489.44
2022-09-06T21:26:51.380Z,86486.75
2022-09-06T21:29:22.611Z,86464.88
2022-09-06T21:31:51.514Z,86502.88
2022-09-06T21:34:20.199Z,86472.56
2022-09-06T21:36:49.007Z,86495.34
2022-09-06T21:39:18.095Z,86496.75
2022-09-06T21:41:47.040Z,86491.88
2022-09-06T21:44:15.648Z,86423.06
2022-09-06T21:46:44.696Z,86469.38
2022-09-06T21:49:14.367Z,86481.84
2022-09-06T21:51:43.330Z,86491.44
2022-09-06T21:54:11.484Z,86497.03
2022-09-06T21:56:40.325Z,86448.91
2022-09-06T21:59:10.213Z,86487.53
2022-09-06T22:01:40.121Z,86453.88
2022-09-06T22:04:09.508Z,86479.34
2022-09-06T22:06:38.359Z,86489.63
2022-09-06T22:09:11.245Z,86493.16
2022-09-06T22:11:40.819Z,86483.31
2022-09-06T22:14:11.029Z,86488.25
2022-09-06T22:16:40.333Z,86482.72
2022-09-06T22:19:09.326Z,86465.66
2022-09-06T22:21:39.057Z,86491.91
2022-09-06T22:24:09.840Z,86486.38
2022-09-06T22:26:39.526Z,86485.69
2022-09-06T22:29:10.229Z,86467.03
2022-09-06T22:31:39.508Z,86485.69
2022-09-06T22:34:08.738Z,86473.81
2022-09-06T22:36:37.583Z,86478.03
2022-09-06T22:39:06.972Z,86471.75
2022-09-06T22:41:35.740Z,86473.88
2022-09-06T22:44:05.087Z,86453.38
2022-09-06T22:46:34.041Z,86456.09
2022-09-06T22:49:04.238Z,86442.28
2022-09-06T22:51:32.994Z,86469.72
2022-09-06T22:54:01.351Z,86450.44
2022-09-06T22:56:29.613Z,86464.13
2022-09-06T22:58:59.919Z,86468.34
2022-09-06T23:01:28.778Z,86415.25
2022-09-06T23:03:57.017Z,86446.31
2022-09-06T23:06:26.172Z,86459.59
2022-09-06T23:08:54.282Z,86446.66
2022-09-06T23:11:22.945Z,86470.88
2022-09-06T23:13:57.254Z,86440.09
2022-09-06T23:16:26.699Z,86460.91
2022-09-06T23:18:55.306Z,86462.97
2022-09-06T23:21:26.506Z,86480.38
2022-09-06T23:23:57.845Z,86472.66
2022-09-06T23:26:29.642Z,86459.03
2022-09-06T23:28:57.326Z,86478.97
2022-09-06T23:31:27.979Z,86444.59
2022-09-06T23:33:57.615Z,86469.28
2022-09-06T23:36:27.135Z,86433.69
2022-09-06T23:38:56.257Z,86457.06
2022-09-06T23:41:25.189Z,86463.91
2022-09-06T23:43:54.006Z,86430.06
2022-09-06T23:46:22.945Z,86454.19
2022-09-06T23:48:51.677Z,86436.31
2022-09-06T23:51:20.908Z,86428.03
2022-09-06T23:53:49.593Z,86447.34
2022-09-06T23:56:18.434Z,86417.13
2022-09-06T23:58:47.245Z,86453.78
